createdAt,value
2023-09-17T00:00:25.921Z,1.20
2023-09-17T00:02:53.497Z,1.05
2023-09-17T00:05:21.205Z,1.00
2023-09-17T00:07:48.631Z,1.20
2023-09-17T00:10:16.175Z,1.20
2023-09-17T00:12:43.700Z,1.35
2023-09-17T00:15:11.398Z,1.30
2023-09-17T00:17:38.803Z,1.20
2023-09-17T00:20:12.233Z,1.15
2023-09-17T00:22:40.315Z,1.38
2023-09-17T00:25:08.127Z,1.50
2023-09-17T00:27:35.738Z,1.30
2023-09-17T00:30:03.166Z,1.30
2023-09-17T00:32:30.633Z,1.38
2023-09-17T00:34:58.064Z,1.20
2023-09-17T00:37:25.584Z,1.35
2023-09-17T00:39:53.042Z,1.15
2023-09-17T00:42:20.441Z,1.15
2023-09-17T00:44:48.078Z,1.55
2023-09-17T00:47:15.700Z,1.50
2023-09-17T00:49:43.750Z,1.27
2023-09-17T00:52:19.482Z,1.55
2023-09-17T00:54:48.022Z,1.40
2023-09-17T00:57:18.840Z,1.25
2023-09-17T00:59:46.629Z,1.27
2023-09-17T01:02:14.740Z,1.67
2023-09-17T01:04:43.082Z,1.35
2023-09-17T01:07:10.997Z,1.80
2023-09-17T01:09:42.196Z,1.17
2023-09-17T01:12:09.745Z,1.55
2023-09-17T01:14:38.066Z,1.27
2023-09-17T01:17:12.200Z,1.50
2023-09-17T01:19:39.943Z,1.30
2023-09-17T01:22:23.877Z,1.23
2023-09-17T01:25:13.243Z,1.50
2023-09-17T01:27:41.024Z,1.40
2023-09-17T01:30:18.632Z,1.20
2023-09-17T01:32:46.349Z,1.40
2023-09-17T01:35:14.981Z,1.55
2023-09-17T01:37:49.066Z,1.30
2023-09-17T01:40:18.522Z,1.23
2023-09-17T01:42:47.892Z,1.17
2023-09-17T01:45:15.706Z,1.35
2023-09-17T01:47:44.580Z,1.23
2023-09-17T01:50:12.517Z,1.23
2023-09-17T01:52:41.521Z,1.20
2023-09-17T01:55:12.334Z,1.30
2023-09-17T01:57:41.021Z,1.15
2023-09-17T02:00:20.896Z,1.83
2023-09-17T02:02:49.886Z,0.95
2023-09-17T02:05:18.242Z,1.20
2023-09-17T02:07:46.240Z,1.60
2023-09-17T02:10:13.990Z,1.38
2023-09-17T02:12:41.695Z,1.23
2023-09-17T02:15:12.180Z,1.30
2023-09-17T02:17:41.212Z,1.20
2023-09-17T02:20:09.762Z,1.48
2023-09-17T02:22:37.221Z,1.27
2023-09-17T02:25:05.169Z,1.50
2023-09-17T02:27:32.719Z,1.13
2023-09-17T02:30:00.145Z,1.83
2023-09-17T02:32:28.249Z,1.13
2023-09-17T02:34:55.825Z,1.25
2023-09-17T02:37:23.381Z,1.42
2023-09-17T02:39:50.952Z,1.58
2023-09-17T02:42:18.799Z,1.38
2023-09-17T02:44:46.223Z,1.35
2023-09-17T02:47:13.754Z,1.23
2023-09-17T02:49:41.413Z,1.00
2023-09-17T02:52:08.921Z,1.02
2023-09-17T02:54:36.486Z,1.02
2023-09-17T02:57:03.931Z,1.48
2023-09-17T02:59:31.331Z,1.42
2023-09-17T03:02:01.624Z,1.35
2023-09-17T03:04:30.384Z,1.17
2023-09-17T03:06:58.484Z,1.40
2023-09-17T03:09:26.349Z,1.15
2023-09-17T03:11:54.028Z,1.20
2023-09-17T03:14:21.693Z,1.67
2023-09-17T03:16:49.137Z,1.50
2023-09-17T03:19:16.732Z,1.38
2023-09-17T03:21:44.334Z,1.38
2023-09-17T03:24:16.605Z,1.50
2023-09-17T03:26:43.967Z,1.65
2023-09-17T03:29:12.371Z,1.10
2023-09-17T03:31:39.952Z,1.25
2023-09-17T03:34:07.389Z,1.27
2023-09-17T03:36:38.488Z,1.40
2023-09-17T03:39:10.200Z,1.10
2023-09-17T03:41:41.603Z,1.00
2023-09-17T03:44:11.556Z,1.20
2023-09-17T03:46:40.108Z,1.10
2023-09-17T03:49:07.714Z,1.30
2023-09-17T03:51:35.165Z,1.27
2023-09-17T03:54:02.774Z,0.95
2023-09-17T03:56:30.473Z,0.95
2023-09-17T03:58:58.241Z,0.90
2023-09-17T04:01:26.082Z,1.13
2023-09-17T04:03:53.847Z,0.82
2023-09-17T04:06:21.525Z,0.90
2023-09-17T04:08:48.960Z,1.27
2023-09-17T04:11:18.159Z,1.20
2023-09-17T04:13:46.250Z,1.05
2023-09-17T04:16:13.881Z,1.05
2023-09-17T04:18:41.366Z,1.35
2023-09-17T04:21:08.892Z,1.15
2023-09-17T04:23:36.491Z,1.20
2023-09-17T04:26:04.186Z,0.95
2023-09-17T04:28:31.696Z,1.13
2023-09-17T04:30:59.155Z,1.63
2023-09-17T04:33:26.731Z,0.88
2023-09-17T04:36:00.253Z,1.45
2023-09-17T04:38:28.617Z,1.42
2023-09-17T04:40:56.190Z,0.98
2023-09-17T04:43:28.108Z,1.00
2023-09-17T04:45:55.932Z,1.10
2023-09-17T04:48:23.419Z,1.05
2023-09-17T04:50:50.829Z,1.17
2023-09-17T04:53:18.424Z,1.10
2023-09-17T04:55:46.020Z,1.35
2023-09-17T04:58:15.048Z,0.93
2023-09-17T05:00:42.505Z,1.23
2023-09-17T05:03:10.106Z,1.00
2023-09-17T05:05:37.657Z,1.05
2023-09-17T05:08:05.208Z,1.15
2023-09-17T05:10:32.647Z,1.25
2023-09-17T05:13:00.372Z,1.27
2023-09-17T05:15:27.802Z,1.10
2023-09-17T05:17:55.236Z,0.93
2023-09-17T05:20:23.229Z,0.85
2023-09-17T05:22:50.896Z,1.00
2023-09-17T05:25:18.407Z,1.00
2023-09-17T05:27:46.318Z,0.80
2023-09-17T05:30:14.909Z,1.20
2023-09-17T05:32:44.388Z,1.42
2023-09-17T05:35:12.045Z,1.42
2023-09-17T05:37:39.484Z,1.20
2023-09-17T05:40:08.117Z,1.00
2023-09-17T05:42:35.657Z,0.80
2023-09-17T05:45:03.084Z,0.88
2023-09-17T05:47:30.628Z,1.20
2023-09-17T05:50:00.111Z,0.98
2023-09-17T05:52:27.862Z,1.02
2023-09-17T05:54:55.322Z,1.15
2023-09-17T05:57:22.806Z,1.38
2023-09-17T05:59:50.330Z,1.10
2023-09-17T06:02:18.130Z,1.00
2023-09-17T06:04:48.910Z,1.00
2023-09-17T06:07:16.407Z,1.77
2023-09-17T06:09:43.892Z,1.10
2023-09-17T06:12:11.285Z,0.90
2023-09-17T06:14:38.732Z,1.05
2023-09-17T06:17:06.222Z,0.90
2023-09-17T06:19:34.583Z,1.05
2023-09-17T06:22:04.569Z,1.30
2023-09-17T06:24:31.963Z,1.10
2023-09-17T06:26:59.615Z,1.33
2023-09-17T06:29:27.003Z,1.13
2023-09-17T06:31:54.803Z,0.95
2023-09-17T06:34:22.650Z,1.05
2023-09-17T06:36:50.247Z,1.40
2023-09-17T06:39:18.559Z,1.27
2023-09-17T06:41:46.450Z,0.90
2023-09-17T06:44:14.004Z,1.20
2023-09-17T06:46:41.589Z,1.45
2023-09-17T06:49:09.121Z,1.63
2023-09-17T06:51:36.571Z,1.00
2023-09-17T06:54:07.081Z,1.27
2023-09-17T06:56:34.510Z,1.20
2023-09-17T06:59:01.954Z,1.23
2023-09-17T07:01:29.446Z,1.13
2023-09-17T07:03:56.959Z,1.05
2023-09-17T07:06:24.376Z,1.50
2023-09-17T07:08:53.890Z,1.27
2023-09-17T07:11:21.300Z,1.20
2023-09-17T07:13:48.708Z,1.13
2023-09-17T07:16:19.109Z,1.02
2023-09-17T07:18:47.000Z,1.00
2023-09-17T07:21:14.641Z,1.20
2023-09-17T07:23:43.203Z,0.90
2023-09-17T07:26:12.245Z,0.98
2023-09-17T07:28:39.865Z,1.25
2023-09-17T07:31:11.548Z,0.93
2023-09-17T07:33:40.605Z,1.52
2023-09-17T07:36:08.262Z,0.90
2023-09-17T07:38:35.719Z,1.02
2023-09-17T07:41:03.610Z,1.27
2023-09-17T07:43:31.161Z,1.10
2023-09-17T07:45:58.605Z,1.30
2023-09-17T07:48:26.386Z,1.17
2023-09-17T07:51:00.366Z,1.05
2023-09-17T07:53:27.919Z,0.90
2023-09-17T07:55:57.307Z,0.88
2023-09-17T07:58:25.010Z,1.05
2023-09-17T08:00:53.382Z,1.00
2023-09-17T08:03:21.003Z,0.90
2023-09-17T08:05:48.673Z,0.82
2023-09-17T08:08:16.200Z,0.98
2023-09-17T08:10:43.837Z,1.02
2023-09-17T08:13:11.455Z,1.00
2023-09-17T08:15:39.122Z,0.90
2023-09-17T08:18:10.387Z,1.27
2023-09-17T08:20:38.015Z,0.75
2023-09-17T08:23:05.627Z,0.90
2023-09-17T08:25:34.817Z,0.80
2023-09-17T08:28:07.448Z,0.70
2023-09-17T08:30:36.306Z,0.70
2023-09-17T08:33:03.863Z,0.90
2023-09-17T08:35:32.396Z,1.00
2023-09-17T08:38:00.323Z,0.70
2023-09-17T08:40:32.054Z,0.73
2023-09-17T08:43:00.678Z,0.85
2023-09-17T08:45:30.248Z,0.85
2023-09-17T08:47:57.929Z,0.77
2023-09-17T08:50:26.728Z,0.90
2023-09-17T08:52:56.303Z,0.75
2023-09-17T08:55:23.968Z,0.80
2023-09-17T08:57:56.110Z,0.50
2023-09-17T09:00:24.229Z,0.50
2023-09-17T09:02:53.953Z,0.70
2023-09-17T09:05:21.907Z,0.80
2023-09-17T09:07:51.707Z,0.60
2023-09-17T09:10:19.806Z,0.75
2023-09-17T09:12:47.528Z,0.75
2023-09-17T09:15:14.972Z,0.55
2023-09-17T09:17:42.541Z,0.57
2023-09-17T09:20:16.062Z,0.60
2023-09-17T09:22:45.131Z,0.60
2023-09-17T09:25:15.045Z,0.60
2023-09-17T09:27:42.765Z,0.50
2023-09-17T09:30:12.602Z,0.65
2023-09-17T09:32:40.625Z,0.50
2023-09-17T09:35:08.558Z,0.65
2023-09-17T09:37:36.591Z,0.82
2023-09-17T09:40:06.375Z,0.80
2023-09-17T09:42:34.008Z,0.60
2023-09-17T09:45:01.447Z,0.57
2023-09-17T09:47:29.016Z,0.50
2023-09-17T09:49:57.734Z,0.60
2023-09-17T09:52:27.982Z,0.50
2023-09-17T09:54:55.448Z,0.60
2023-09-17T09:57:25.384Z,0.70
2023-09-17T09:59:53.151Z,0.60
2023-09-17T10:02:23.821Z,0.55
2023-09-17T10:04:51.641Z,0.38
2023-09-17T10:07:19.787Z,0.57
2023-09-17T10:09:48.611Z,0.68
2023-09-17T10:12:16.564Z,0.55
2023-09-17T10:14:44.067Z,0.60
2023-09-17T10:17:15.448Z,0.65
2023-09-17T10:19:43.768Z,0.77
2023-09-17T10:22:14.410Z,0.60
2023-09-17T10:24:43.768Z,1.27
2023-09-17T10:27:11.126Z,0.98
2023-09-17T10:29:39.880Z,1.05
2023-09-17T10:32:08.095Z,1.00
2023-09-17T10:34:37.243Z,1.10
2023-09-17T10:37:05.287Z,1.00
2023-09-17T10:39:34.702Z,1.00
2023-09-17T10:42:04.147Z,1.20
2023-09-17T10:44:32.351Z,1.30
2023-09-17T10:47:03.729Z,1.60
2023-09-17T10:49:32.798Z,1.45
2023-09-17T10:52:00.823Z,1.42
2023-09-17T10:54:28.232Z,1.00
2023-09-17T10:56:57.015Z,0.90
2023-09-17T10:59:25.249Z,1.23
2023-09-17T11:01:53.707Z,1.00
2023-09-17T11:04:23.780Z,1.30
2023-09-17T11:06:51.986Z,1.20
2023-09-17T11:09:20.426Z,1.17
2023-09-17T11:11:47.888Z,1.23
2023-09-17T11:14:15.503Z,1.27
2023-09-17T11:16:43.681Z,1.10
2023-09-17T11:19:17.604Z,1.00
2023-09-17T11:21:48.781Z,1.20
2023-09-17T11:24:19.270Z,1.30
2023-09-17T11:26:47.644Z,1.17
2023-09-17T11:29:16.194Z,1.25
2023-09-17T11:31:56.038Z,1.00
2023-09-17T11:34:23.765Z,1.05
2023-09-17T11:36:51.925Z,1.13
2023-09-17T11:39:22.724Z,1.38
2023-09-17T11:41:56.746Z,1.30
2023-09-17T11:44:24.726Z,1.00
2023-09-17T11:46:52.364Z,1.10
2023-09-17T11:49:19.812Z,1.50
2023-09-17T11:51:47.897Z,1.30
2023-09-17T11:54:20.447Z,1.10
2023-09-17T11:56:56.846Z,1.10
2023-09-17T11:59:25.380Z,1.10
2023-09-17T12:01:54.192Z,1.10
2023-09-17T12:04:24.755Z,1.52
2023-09-17T12:06:52.767Z,1.65
2023-09-17T12:09:32.560Z,1.42
2023-09-17T12:12:00.646Z,1.10
2023-09-17T12:14:28.260Z,1.50
2023-09-17T12:16:55.866Z,1.30
2023-09-17T12:19:23.445Z,1.33
2023-09-17T12:21:56.565Z,1.13
2023-09-17T12:24:40.633Z,1.30
2023-09-17T12:27:26.664Z,1.20
2023-09-17T12:29:57.998Z,1.23
2023-09-17T12:32:26.935Z,1.35
2023-09-17T12:34:56.064Z,1.30
2023-09-17T12:37:23.886Z,1.27
2023-09-17T12:39:51.769Z,1.45
2023-09-17T12:42:19.560Z,1.40
2023-09-17T12:44:47.099Z,1.17
2023-09-17T12:47:14.779Z,0.88
2023-09-17T12:49:42.843Z,1.30
2023-09-17T12:52:10.764Z,1.30
2023-09-17T12:54:38.293Z,1.58
2023-09-17T12:57:05.979Z,1.63
2023-09-17T12:59:34.847Z,1.60
2023-09-17T13:02:05.024Z,1.40
2023-09-17T13:04:39.966Z,1.40
2023-09-17T13:07:23.939Z,1.60
2023-09-17T13:09:55.094Z,1.35
2023-09-17T13:12:27.425Z,1.60
2023-09-17T13:14:56.427Z,1.10
2023-09-17T13:17:24.861Z,1.60
2023-09-17T13:19:52.402Z,1.05
2023-09-17T13:22:20.708Z,1.30
2023-09-17T13:24:48.693Z,1.35
2023-09-17T13:27:19.621Z,1.63
2023-09-17T13:29:56.596Z,1.40
2023-09-17T13:32:24.321Z,1.88
2023-09-17T13:34:51.917Z,1.95
2023-09-17T13:37:19.949Z,1.38
2023-09-17T13:39:51.014Z,1.60
2023-09-17T13:42:18.845Z,1.67
2023-09-17T13:44:46.377Z,1.35
2023-09-17T13:47:13.984Z,1.42
2023-09-17T13:49:42.234Z,1.48
2023-09-17T13:52:10.257Z,1.70
2023-09-17T13:54:43.687Z,1.90
2023-09-17T13:57:11.593Z,1.58
2023-09-17T13:59:38.988Z,1.58
2023-09-17T14:02:06.836Z,1.50
2023-09-17T14:04:34.957Z,1.70
2023-09-17T14:07:02.822Z,1.67
2023-09-17T14:09:30.317Z,1.92
2023-09-17T14:11:57.866Z,1.55
2023-09-17T14:14:25.324Z,1.60
2023-09-17T14:16:52.779Z,1.50
2023-09-17T14:19:20.396Z,2.15
2023-09-17T14:21:48.780Z,1.70
2023-09-17T14:24:16.678Z,1.65
2023-09-17T14:26:45.100Z,1.50
2023-09-17T14:29:12.888Z,1.42
2023-09-17T14:31:44.069Z,1.75
2023-09-17T14:34:12.094Z,1.70
2023-09-17T14:36:39.664Z,1.90
2023-09-17T14:39:07.578Z,2.20
2023-09-17T14:41:36.282Z,1.50
2023-09-17T14:44:03.773Z,1.70
2023-09-17T14:46:33.190Z,1.75
2023-09-17T14:49:00.654Z,1.45
2023-09-17T14:51:28.041Z,2.10
2023-09-17T14:53:55.468Z,2.10
2023-09-17T14:56:22.886Z,1.98
2023-09-17T14:58:50.716Z,1.67
2023-09-17T15:01:46.963Z,1.98
2023-09-17T15:04:06.087Z,1.67
2023-09-17T15:06:33.692Z,1.70
2023-09-17T15:09:01.245Z,1.95
2023-09-17T15:11:28.720Z,2.00
2023-09-17T15:13:56.261Z,1.77
2023-09-17T15:16:23.720Z,1.83
2023-09-17T15:18:51.478Z,1.67
2023-09-17T15:21:19.644Z,1.60
2023-09-17T15:23:47.107Z,1.70
2023-09-17T15:26:14.524Z,1.95
2023-09-17T15:28:44.708Z,1.85
2023-09-17T15:31:12.451Z,1.77
2023-09-17T15:33:40.415Z,1.80
2023-09-17T15:36:08.252Z,2.05
2023-09-17T15:38:35.644Z,1.55
2023-09-17T15:41:06.443Z,1.60
2023-09-17T15:43:37.549Z,1.70
2023-09-17T15:46:05.522Z,2.38
2023-09-17T15:48:34.201Z,2.33
2023-09-17T15:51:02.147Z,2.08
2023-09-17T15:53:30.070Z,1.90
2023-09-17T15:55:57.625Z,2.20
2023-09-17T15:58:25.166Z,1.80
2023-09-17T16:00:53.666Z,2.00
2023-09-17T16:03:21.352Z,2.10
2023-09-17T16:05:49.286Z,2.00
2023-09-17T16:08:16.934Z,1.88
2023-09-17T16:10:44.441Z,2.08
2023-09-17T16:13:11.987Z,2.03
2023-09-17T16:15:39.427Z,2.17
2023-09-17T16:18:07.191Z,1.65
2023-09-17T16:20:34.695Z,2.40
2023-09-17T16:23:02.234Z,1.83
2023-09-17T16:25:30.003Z,2.20
2023-09-17T16:27:57.923Z,2.33
2023-09-17T16:30:25.377Z,2.30
2023-09-17T16:32:52.930Z,2.13
2023-09-17T16:35:20.526Z,2.08
2023-09-17T16:37:48.286Z,2.08
2023-09-17T16:40:15.934Z,1.90
2023-09-17T16:42:53.879Z,2.30
2023-09-17T16:45:29.745Z,1.77
2023-09-17T16:47:57.206Z,2.28
2023-09-17T16:50:25.716Z,2.20
2023-09-17T16:52:54.870Z,1.80
2023-09-17T16:55:22.327Z,2.40
2023-09-17T16:57:49.810Z,2.60
2023-09-17T17:00:17.524Z,1.90
2023-09-17T17:02:45.052Z,2.60
2023-09-17T17:05:12.652Z,2.50
2023-09-17T17:07:41.195Z,2.10
2023-09-17T17:10:09.004Z,2.22
2023-09-17T17:12:37.049Z,1.90
2023-09-17T17:15:04.570Z,2.65
2023-09-17T17:17:32.011Z,1.83
2023-09-17T17:19:59.432Z,2.17
2023-09-17T17:22:27.541Z,2.05
2023-09-17T17:24:55.044Z,2.00
2023-09-17T17:27:24.091Z,2.08
2023-09-17T17:29:51.543Z,2.10
2023-09-17T17:32:19.056Z,1.88
2023-09-17T17:34:46.543Z,2.55
2023-09-17T17:37:14.245Z,2.53
2023-09-17T17:39:41.587Z,2.00
2023-09-17T17:42:09.087Z,2.00
2023-09-17T17:44:36.685Z,1.83
2023-09-17T17:47:04.176Z,2.33
2023-09-17T17:49:31.646Z,2.30
2023-09-17T17:51:59.085Z,2.00
2023-09-17T17:54:26.433Z,2.22
2023-09-17T17:56:55.953Z,2.47
2023-09-17T17:59:25.627Z,2.20
2023-09-17T18:01:53.236Z,2.00
2023-09-17T18:04:20.744Z,2.13
2023-09-17T18:06:48.201Z,2.30
2023-09-17T18:09:15.801Z,1.92
2023-09-17T18:11:43.120Z,1.85
2023-09-17T18:14:10.516Z,2.35
2023-09-17T18:16:37.988Z,1.95
2023-09-17T18:19:05.365Z,2.15
2023-09-17T18:21:32.724Z,1.85
2023-09-17T18:24:01.680Z,1.77
2023-09-17T18:26:29.218Z,2.00
2023-09-17T18:28:58.423Z,2.17
2023-09-17T18:31:25.949Z,2.40
2023-09-17T18:33:53.780Z,4.00
2023-09-17T18:36:21.808Z,5.70
2023-09-17T18:38:49.999Z,3.33
2023-09-17T18:41:17.470Z,2.75
2023-09-17T18:43:45.062Z,2.42
2023-09-17T18:46:13.276Z,1.83
2023-09-17T18:48:40.680Z,2.17
2023-09-17T18:51:08.265Z,2.70
2023-09-17T18:53:35.724Z,2.33
2023-09-17T18:56:03.814Z,2.45
2023-09-17T18:58:31.434Z,2.42
2023-09-17T19:00:59.039Z,2.30
2023-09-17T19:03:26.629Z,2.50
2023-09-17T19:05:54.040Z,2.17
2023-09-17T19:08:21.525Z,2.35
2023-09-17T19:10:52.023Z,2.00
2023-09-17T19:13:19.367Z,2.55
2023-09-17T19:15:47.085Z,2.67
2023-09-17T19:18:14.655Z,2.40
2023-09-17T19:20:44.780Z,2.17
2023-09-17T19:23:12.230Z,2.42
2023-09-17T19:25:40.883Z,2.38
2023-09-17T19:28:10.143Z,2.95
2023-09-17T19:30:38.084Z,2.28
2023-09-17T19:33:06.004Z,2.33
2023-09-17T19:35:33.602Z,3.03
2023-09-17T19:38:02.446Z,2.38
2023-09-17T19:40:31.167Z,2.20
2023-09-17T19:42:58.571Z,2.00
2023-09-17T19:45:27.060Z,2.60
2023-09-17T19:47:54.564Z,2.20
2023-09-17T19:50:22.102Z,1.95
2023-09-17T19:52:51.488Z,2.10
2023-09-17T19:55:18.897Z,2.03
2023-09-17T19:57:46.332Z,2.38
2023-09-17T20:00:14.251Z,2.67
2023-09-17T20:02:41.730Z,2.30
2023-09-17T20:05:10.194Z,2.13
2023-09-17T20:07:38.274Z,2.58
2023-09-17T20:10:13.763Z,2.28
2023-09-17T20:12:41.139Z,2.85
2023-09-17T20:15:08.838Z,2.60
2023-09-17T20:17:36.201Z,2.33
2023-09-17T20:20:03.986Z,2.38
2023-09-17T20:22:31.495Z,1.90
2023-09-17T20:24:59.432Z,2.30
2023-09-17T20:27:28.637Z,2.17
2023-09-17T20:29:56.137Z,2.30
2023-09-17T20:32:23.758Z,2.03
2023-09-17T20:34:51.379Z,2.00
2023-09-17T20:37:19.300Z,2.50
2023-09-17T20:39:47.058Z,2.10
2023-09-17T20:42:14.632Z,2.20
2023-09-17T20:44:42.104Z,2.28
2023-09-17T20:47:09.478Z,2.78
2023-09-17T20:49:36.926Z,2.55
2023-09-17T20:52:04.382Z,2.45
2023-09-17T20:54:31.824Z,2.55
2023-09-17T20:57:00.695Z,1.95
2023-09-17T20:59:28.306Z,1.95
2023-09-17T21:01:55.836Z,2.15
2023-09-17T21:04:23.305Z,2.35
2023-09-17T21:06:50.664Z,2.55
2023-09-17T21:09:28.014Z,2.35
2023-09-17T21:11:56.133Z,2.47
2023-09-17T21:14:23.914Z,2.15
2023-09-17T21:16:51.361Z,2.30
2023-09-17T21:19:18.881Z,2.17
2023-09-17T21:21:46.315Z,2.25
2023-09-17T21:24:13.928Z,2.75
2023-09-17T21:26:41.326Z,2.55
2023-09-17T21:29:09.018Z,2.58
2023-09-17T21:31:36.551Z,2.60
2023-09-17T21:34:04.475Z,2.67
2023-09-17T21:36:32.847Z,2.90
2023-09-17T21:39:00.295Z,2.17
2023-09-17T21:41:27.768Z,2.30
2023-09-17T21:43:55.225Z,2.40
2023-09-17T21:46:22.786Z,2.38
2023-09-17T21:48:50.568Z,2.70
2023-09-17T21:51:18.203Z,2.20
2023-09-17T21:53:45.771Z,2.03
2023-09-17T21:56:13.457Z,2.70
2023-09-17T21:58:40.933Z,2.60
2023-09-17T22:01:09.322Z,2.15
2023-09-17T22:03:37.223Z,2.60
2023-09-17T22:06:05.233Z,2.30
2023-09-17T22:08:33.448Z,2.40
2023-09-17T22:11:05.641Z,2.38
2023-09-17T22:13:34.046Z,2.83
2023-09-17T22:16:01.867Z,2.25
2023-09-17T22:18:32.512Z,2.40
2023-09-17T22:21:07.124Z,2.80
2023-09-17T22:23:35.801Z,2.42
2023-09-17T22:26:10.036Z,2.35
2023-09-17T22:28:37.996Z,2.45
2023-09-17T22:31:16.452Z,2.47
2023-09-17T22:33:45.995Z,2.22
2023-09-17T22:36:14.100Z,3.13
2023-09-17T22:38:45.442Z,2.20
2023-09-17T22:41:19.672Z,2.60
2023-09-17T22:43:52.375Z,1.90
2023-09-17T22:46:21.392Z,2.40
2023-09-17T22:48:51.268Z,2.33
2023-09-17T22:51:23.059Z,2.60
2023-09-17T22:53:53.488Z,2.40
2023-09-17T22:56:21.448Z,2.58
2023-09-17T22:58:49.000Z,2.58
2023-09-17T23:01:18.813Z,2.78
2023-09-17T23:03:46.367Z,2.70
2023-09-17T23:06:14.243Z,2.50
2023-09-17T23:08:42.158Z,2.35
2023-09-17T23:11:10.023Z,2.50
2023-09-17T23:13:37.913Z,2.72
2023-09-17T23:16:05.800Z,2.80
2023-09-17T23:18:34.129Z,2.40
2023-09-17T23:21:05.427Z,2.45
2023-09-17T23:23:34.551Z,2.30
2023-09-17T23:26:02.687Z,2.47
2023-09-17T23:28:34.521Z,2.05
2023-09-17T23:31:05.272Z,2.38
2023-09-17T23:33:34.569Z,2.40
2023-09-17T23:36:02.367Z,2.70
2023-09-17T23:38:34.304Z,2.92
2023-09-17T23:41:04.080Z,2.67
2023-09-17T23:43:31.600Z,3.28
2023-09-17T23:45:59.103Z,2.67
2023-09-17T23:48:26.752Z,2.92
2023-09-17T23:50:54.420Z,2.65
2023-09-17T23:53:21.786Z,3.00
2023-09-17T23:55:49.911Z,3.03
2023-09-17T23:58:18.199Z,2.72
